createdAt,value
2022-12-08T00:00:11.943Z,97.44
2022-12-08T00:03:00.715Z,97.39
2022-12-08T00:05:48.854Z,97.56
2022-12-08T00:08:36.055Z,97.55
2022-12-08T00:11:04.755Z,97.61
2022-12-08T00:13:33.433Z,97.49
2022-12-08T00:16:02.318Z,97.64
2022-12-08T00:18:30.794Z,97.75
2022-12-08T00:21:00.194Z,97.80
2022-12-08T00:23:29.196Z,98.03
2022-12-08T00:25:57.666Z,98.18
2022-12-08T00:28:26.359Z,98.11
2022-12-08T00:30:55.138Z,98.16
2022-12-08T00:33:24.035Z,98.06
2022-12-08T00:35:52.924Z,98.13
2022-12-08T00:38:22.135Z,98.17
2022-12-08T00:40:50.807Z,98.32
2022-12-08T00:43:19.494Z,98.32
2022-12-08T00:45:48.365Z,98.28
2022-12-08T00:48:17.195Z,98.28
2022-12-08T00:50:45.954Z,98.32
2022-12-08T00:53:14.654Z,98.26
2022-12-08T00:55:43.841Z,98.09
2022-12-08T00:58:12.637Z,97.94
2022-12-08T01:00:42.832Z,97.90
2022-12-08T01:03:12.311Z,97.86
2022-12-08T01:05:41.355Z,97.63
2022-12-08T01:08:10.211Z,97.56
2022-12-08T01:10:40.050Z,97.54
2022-12-08T01:13:08.528Z,97.43
2022-12-08T01:15:37.733Z,97.38
2022-12-08T01:18:06.453Z,97.25
2022-12-08T01:20:35.112Z,97.05
2022-12-08T01:23:03.997Z,96.98
2022-12-08T01:25:35.857Z,96.96
2022-12-08T01:28:04.954Z,97.04
2022-12-08T01:30:33.760Z,96.98
2022-12-08T01:33:02.834Z,97.07
2022-12-08T01:35:31.925Z,97.05
2022-12-08T01:38:00.403Z,97.11
2022-12-08T01:40:29.091Z,97.22
2022-12-08T01:42:57.799Z,97.29
2022-12-08T01:45:31.794Z,97.12
2022-12-08T01:48:11.713Z,97.29
2022-12-08T01:50:41.324Z,97.30
2022-12-08T01:53:13.174Z,97.19
2022-12-08T01:55:49.524Z,97.17
2022-12-08T01:58:28.944Z,97.35
2022-12-08T02:00:57.545Z,97.17
2022-12-08T02:03:34.858Z,97.35
2022-12-08T02:06:04.274Z,97.41
2022-12-08T02:08:33.276Z,97.43
2022-12-08T02:11:01.850Z,97.48
2022-12-08T02:13:32.992Z,97.45
2022-12-08T02:16:20.162Z,97.68
2022-12-08T02:22:14.925Z,97.61
2022-12-08T02:24:55.915Z,97.73
2022-12-08T02:27:34.420Z,97.77
2022-12-08T02:30:34.926Z,97.84
2022-12-08T02:33:09.496Z,97.89
2022-12-08T02:36:01.317Z,97.85
2022-12-08T02:38:44.236Z,97.92
2022-12-08T02:41:31.968Z,97.90
2022-12-08T02:44:09.554Z,98.05
2022-12-08T02:46:47.158Z,97.91
2022-12-08T02:49:17.066Z,97.85
2022-12-08T02:51:45.655Z,97.96
2022-12-08T02:54:15.576Z,97.82
2022-12-08T02:57:19.775Z,97.83
2022-12-08T03:00:07.680Z,97.69
2022-12-08T03:02:58.291Z,97.66
2022-12-08T03:05:54.947Z,97.57
2022-12-08T03:08:48.836Z,97.57
2022-12-08T03:11:22.955Z,97.58
2022-12-08T03:13:58.044Z,97.54
2022-12-08T03:16:31.060Z,97.57
2022-12-08T03:19:04.559Z,97.83
2022-12-08T03:21:34.683Z,97.67
2022-12-08T03:24:07.869Z,97.80
2022-12-08T03:26:47.316Z,97.83
2022-12-08T03:29:16.093Z,97.88
2022-12-08T03:32:23.701Z,97.79
2022-12-08T03:34:53.935Z,97.58
2022-12-08T03:37:22.810Z,97.53
2022-12-08T03:39:51.618Z,97.54
2022-12-08T03:42:20.391Z,97.54
2022-12-08T03:44:48.996Z,97.53
2022-12-08T03:47:17.752Z,97.50
2022-12-08T03:49:46.347Z,97.52
2022-12-08T03:52:14.936Z,97.53
2022-12-08T03:54:43.503Z,97.50
2022-12-08T03:57:12.197Z,97.59
2022-12-08T03:59:40.896Z,97.65
2022-12-08T04:02:09.733Z,97.69
2022-12-08T04:04:39.706Z,97.53
2022-12-08T04:07:08.267Z,97.38
2022-12-08T04:09:37.176Z,97.13
2022-12-08T04:12:06.395Z,97.08
2022-12-08T04:14:35.141Z,97.04
2022-12-08T04:17:04.044Z,97.11
2022-12-08T04:19:32.919Z,97.08
2022-12-08T04:22:01.398Z,97.09
2022-12-08T04:24:29.982Z,97.11
2022-12-08T04:26:58.900Z,97.13
2022-12-08T04:29:27.675Z,97.15
2022-12-08T04:31:56.437Z,97.21
2022-12-08T04:34:26.308Z,97.22
2022-12-08T04:36:54.842Z,97.33
2022-12-08T04:39:23.636Z,97.34
2022-12-08T04:41:53.238Z,97.49
2022-12-08T04:44:22.035Z,97.46
2022-12-08T04:46:50.754Z,97.55
2022-12-08T04:49:20.273Z,97.53
2022-12-08T04:51:49.435Z,97.53
2022-12-08T04:54:18.029Z,97.41
2022-12-08T04:56:46.701Z,97.33
2022-12-08T04:59:15.264Z,97.37
2022-12-08T05:01:44.135Z,97.21
2022-12-08T05:04:13.049Z,97.16
2022-12-08T05:06:41.637Z,97.38
2022-12-08T05:09:10.623Z,97.42
2022-12-08T05:11:48.404Z,97.51
2022-12-08T05:14:19.494Z,97.59
2022-12-08T05:16:48.496Z,97.68
2022-12-08T05:19:18.376Z,97.85
2022-12-08T05:21:47.260Z,97.77
2022-12-08T05:24:15.855Z,97.81
2022-12-08T05:26:44.435Z,97.83
2022-12-08T05:29:13.134Z,97.73
2022-12-08T05:31:42.021Z,97.96
2022-12-08T05:34:10.916Z,97.88
2022-12-08T05:36:39.695Z,98.02
2022-12-08T05:39:09.143Z,97.99
2022-12-08T05:41:37.776Z,98.21
2022-12-08T05:44:06.665Z,98.47
2022-12-08T05:46:35.448Z,98.54
2022-12-08T05:49:04.487Z,98.50
2022-12-08T05:51:33.456Z,98.64
2022-12-08T05:54:02.636Z,98.58
2022-12-08T05:56:31.437Z,98.62
2022-12-08T05:59:00.735Z,98.52
2022-12-08T06:01:31.412Z,98.53
2022-12-08T06:04:01.735Z,98.28
2022-12-08T06:06:30.956Z,98.35
2022-12-08T06:08:59.757Z,98.29
2022-12-08T06:11:30.850Z,98.18
2022-12-08T06:14:00.023Z,98.18
2022-12-08T06:16:29.267Z,98.06
2022-12-08T06:18:59.335Z,98.13
2022-12-08T06:21:27.815Z,98.08
2022-12-08T06:23:56.815Z,97.93
2022-12-08T06:26:25.696Z,98.00
2022-12-08T06:28:54.698Z,98.12
2022-12-08T06:31:26.229Z,98.13
2022-12-08T06:33:55.956Z,98.12
2022-12-08T06:36:26.853Z,98.13
2022-12-08T06:38:56.476Z,98.30
2022-12-08T06:41:25.395Z,98.35
2022-12-08T06:43:58.067Z,98.43
2022-12-08T06:46:27.440Z,98.40
2022-12-08T06:48:56.450Z,98.45
2022-12-08T06:51:26.476Z,98.51
2022-12-08T06:53:55.565Z,98.46
2022-12-08T06:56:28.457Z,98.41
2022-12-08T06:58:57.136Z,98.72
2022-12-08T07:01:26.455Z,98.70
2022-12-08T07:03:55.022Z,98.65
2022-12-08T07:06:25.134Z,98.47
2022-12-08T07:08:54.042Z,98.61
2022-12-08T07:11:23.019Z,98.68
2022-12-08T07:13:51.805Z,98.53
2022-12-08T07:16:20.778Z,98.71
2022-12-08T07:18:50.822Z,98.62
2022-12-08T07:21:19.603Z,98.66
2022-12-08T07:23:54.220Z,98.79
2022-12-08T07:26:27.217Z,98.86
2022-12-08T07:28:56.417Z,98.83
2022-12-08T07:31:26.214Z,98.85
2022-12-08T07:33:57.511Z,98.86
2022-12-08T07:36:26.677Z,98.87
2022-12-08T07:38:55.257Z,98.92
2022-12-08T07:41:27.021Z,98.90
2022-12-08T07:43:57.059Z,98.87
2022-12-08T07:46:27.141Z,98.75
2022-12-08T07:48:58.168Z,98.61
2022-12-08T07:51:28.139Z,98.54
2022-12-08T07:53:57.118Z,98.50
2022-12-08T07:56:26.433Z,98.53
2022-12-08T07:58:56.438Z,98.26
2022-12-08T08:01:29.055Z,98.41
2022-12-08T08:04:02.230Z,98.10
2022-12-08T08:06:33.081Z,98.01
2022-12-08T08:09:01.900Z,98.30
2022-12-08T08:11:31.098Z,98.03
2022-12-08T08:14:00.003Z,97.64
2022-12-08T08:16:33.458Z,97.66
2022-12-08T08:19:05.661Z,97.51
2022-12-08T08:21:45.417Z,97.35
2022-12-08T08:24:15.520Z,97.15
2022-12-08T08:26:45.994Z,96.84
2022-12-08T08:29:15.986Z,96.48
2022-12-08T08:31:46.328Z,96.51
2022-12-08T08:34:16.114Z,96.35
2022-12-08T08:36:45.749Z,96.34
2022-12-08T08:39:15.005Z,95.93
2022-12-08T08:41:44.062Z,95.87
2022-12-08T08:44:15.432Z,95.32
2022-12-08T08:46:44.306Z,94.97
2022-12-08T08:49:13.720Z,95.41
2022-12-08T08:51:43.209Z,95.16
2022-12-08T08:54:12.659Z,95.03
2022-12-08T08:56:42.171Z,94.97
2022-12-08T08:59:11.760Z,94.70
2022-12-08T09:01:40.581Z,94.15
2022-12-08T09:04:10.496Z,93.96
2022-12-08T09:06:39.942Z,93.80
2022-12-08T09:09:08.877Z,93.81
2022-12-08T09:11:38.376Z,93.02
2022-12-08T09:14:07.898Z,92.74
2022-12-08T09:16:41.910Z,92.58
2022-12-08T09:19:11.775Z,92.37
2022-12-08T09:21:41.094Z,92.39
2022-12-08T09:24:16.136Z,91.98
2022-12-08T09:26:45.632Z,91.76
2022-12-08T09:29:15.157Z,91.30
2022-12-08T09:31:44.460Z,91.01
2022-12-08T09:34:14.770Z,91.25
2022-12-08T09:36:43.748Z,90.32
2022-12-08T09:39:12.358Z,90.35
2022-12-08T09:41:48.473Z,90.01
2022-12-08T09:44:35.103Z,89.66
2022-12-08T09:47:07.413Z,89.81
2022-12-08T09:50:03.213Z,89.52
2022-12-08T09:52:39.150Z,89.18
2022-12-08T09:55:32.316Z,89.61
2022-12-08T09:58:03.238Z,89.43
2022-12-08T10:00:32.663Z,89.71
2022-12-08T10:03:01.858Z,90.01
2022-12-08T10:05:33.838Z,90.02
2022-12-08T10:08:28.291Z,89.60
2022-12-08T10:11:09.685Z,88.90
2022-12-08T10:13:52.301Z,87.54
2022-12-08T10:16:41.366Z,86.96
2022-12-08T10:19:15.562Z,87.08
2022-12-08T10:21:45.084Z,86.18
2022-12-08T10:24:19.604Z,85.83
2022-12-08T10:26:50.047Z,86.43
2022-12-08T10:29:19.437Z,86.23
2022-12-08T10:31:48.724Z,86.26
2022-12-08T10:34:21.458Z,85.84
2022-12-08T10:36:50.406Z,85.83
2022-12-08T10:39:40.930Z,84.99
2022-12-08T10:42:20.446Z,85.74
2022-12-08T10:45:04.112Z,84.90
2022-12-08T10:47:38.364Z,84.70
2022-12-08T10:50:13.037Z,84.77
2022-12-08T10:52:42.028Z,85.17
2022-12-08T10:55:19.291Z,84.40
2022-12-08T10:57:51.572Z,84.47
2022-12-08T11:00:28.729Z,84.62
2022-12-08T11:03:01.277Z,84.95
2022-12-08T11:05:33.712Z,84.54
2022-12-08T11:08:04.913Z,83.67
2022-12-08T11:10:43.281Z,83.63
2022-12-08T11:13:24.599Z,84.19
2022-12-08T11:15:55.590Z,84.61
2022-12-08T11:18:43.440Z,84.86
2022-12-08T11:21:17.376Z,84.80
2022-12-08T11:23:51.225Z,85.60
2022-12-08T11:26:30.536Z,85.99
2022-12-08T11:29:01.008Z,86.27
2022-12-08T11:31:37.604Z,86.18
2022-12-08T11:34:07.593Z,85.49
2022-12-08T11:36:38.049Z,85.16
2022-12-08T11:39:06.911Z,85.52
2022-12-08T11:41:42.556Z,84.92
2022-12-08T11:44:22.404Z,84.78
2022-12-08T11:46:58.911Z,85.04
2022-12-08T11:52:23.275Z,85.16
2022-12-08T11:55:36.967Z,85.13
2022-12-08T11:58:42.476Z,85.42
2022-12-08T12:01:21.479Z,85.18
2022-12-08T12:04:13.906Z,84.49
2022-12-08T12:07:01.769Z,84.01
2022-12-08T12:09:45.420Z,83.88
2022-12-08T12:12:40.247Z,83.95
2022-12-08T12:15:24.562Z,84.11
2022-12-08T12:18:06.138Z,84.14
2022-12-08T12:20:47.038Z,84.31
2022-12-08T12:23:22.196Z,84.36
2022-12-08T12:26:02.653Z,84.39
2022-12-08T12:28:53.946Z,84.63
2022-12-08T12:31:45.456Z,84.51
2022-12-08T12:34:31.633Z,84.84
2022-12-08T12:37:26.042Z,84.55
2022-12-08T12:40:03.234Z,85.01
2022-12-08T12:42:52.094Z,84.69
2022-12-08T12:45:21.273Z,83.12
2022-12-08T12:47:58.161Z,81.71
2022-12-08T12:50:37.806Z,80.03
2022-12-08T12:53:19.497Z,80.02
2022-12-08T12:56:03.059Z,80.14
2022-12-08T12:58:32.126Z,80.02
2022-12-08T13:01:13.785Z,80.21
2022-12-08T13:04:13.156Z,80.56
2022-12-08T13:06:45.344Z,81.18
2022-12-08T13:09:27.797Z,81.02
2022-12-08T13:11:59.376Z,80.38
2022-12-08T13:14:34.048Z,80.44
2022-12-08T13:17:07.849Z,80.86
2022-12-08T13:19:37.847Z,81.27
2022-12-08T13:22:45.383Z,81.20
2022-12-08T13:25:48.522Z,81.33
2022-12-08T13:28:30.593Z,80.48
2022-12-08T13:31:04.494Z,81.36
2022-12-08T13:33:39.908Z,81.74
2022-12-08T13:36:19.408Z,82.32
2022-12-08T13:38:51.297Z,82.37
2022-12-08T13:41:23.494Z,82.23
2022-12-08T13:59:23.720Z,83.93
2022-12-08T14:01:52.961Z,84.41
2022-12-08T14:05:09.345Z,84.30
2022-12-08T14:07:12.670Z,84.33
2022-12-08T14:09:42.860Z,84.29
2022-12-08T14:12:22.074Z,84.60
2022-12-08T14:15:03.093Z,84.83
2022-12-08T14:17:35.923Z,84.88
2022-12-08T14:20:13.722Z,84.82
2022-12-08T14:22:42.613Z,85.23
2022-12-08T14:25:18.673Z,84.90
2022-12-08T14:27:48.788Z,85.06
2022-12-08T14:30:25.683Z,85.17
2022-12-08T14:33:02.030Z,85.34
2022-12-08T14:35:37.185Z,85.28
2022-12-08T14:38:21.326Z,85.85
2022-12-08T14:41:08.021Z,85.92
2022-12-08T14:43:37.324Z,86.07
2022-12-08T14:46:22.720Z,86.23
2022-12-08T14:48:54.004Z,86.46
2022-12-08T14:51:32.775Z,86.67
2022-12-08T14:54:14.784Z,86.82
2022-12-08T14:56:55.081Z,86.83
2022-12-08T14:59:32.987Z,86.90
2022-12-08T15:02:20.050Z,87.12
2022-12-08T15:04:56.012Z,87.25
2022-12-08T15:07:28.268Z,87.02
2022-12-08T15:10:10.787Z,87.30
2022-12-08T15:12:40.170Z,87.30
2022-12-08T15:15:09.905Z,87.31
2022-12-08T15:17:44.991Z,87.22
2022-12-08T15:20:33.195Z,87.46
2022-12-08T15:23:04.637Z,87.71
2022-12-08T15:25:33.735Z,87.83
2022-12-08T15:28:03.224Z,87.62
2022-12-08T15:30:32.436Z,87.82
2022-12-08T15:33:01.310Z,88.26
2022-12-08T15:35:30.404Z,88.19
2022-12-08T15:38:00.436Z,88.37
2022-12-08T15:40:29.524Z,88.41
2022-12-08T15:42:58.512Z,88.73
2022-12-08T15:45:31.786Z,89.07
2022-12-08T15:48:01.808Z,89.13
2022-12-08T15:50:31.527Z,89.23
2022-12-08T15:53:00.238Z,89.29
2022-12-08T15:55:31.089Z,89.14
2022-12-08T16:00:54.153Z,89.53
2022-12-08T16:09:24.468Z,89.60
2022-12-08T16:12:12.672Z,89.75
2022-12-08T16:17:35.233Z,89.89
2022-12-08T16:20:12.178Z,90.09
2022-12-08T16:22:54.492Z,89.89
2022-12-08T16:25:46.033Z,89.93
2022-12-08T16:28:52.068Z,89.83
2022-12-08T16:31:13.778Z,89.72
2022-12-08T16:33:44.214Z,89.80
2022-12-08T16:36:13.116Z,89.57
2022-12-08T16:38:43.551Z,89.46
2022-12-08T16:41:34.237Z,89.27
2022-12-08T16:44:05.627Z,89.30
2022-12-08T16:46:36.614Z,89.21
2022-12-08T16:49:06.574Z,89.11
2022-12-08T16:51:36.138Z,89.15
2022-12-08T16:54:05.559Z,89.31
2022-12-08T16:56:34.843Z,89.24
2022-12-08T16:59:04.262Z,89.19
2022-12-08T17:01:33.594Z,89.07
2022-12-08T17:06:53.276Z,89.20
2022-12-08T17:09:22.436Z,89.21
2022-12-08T17:11:56.551Z,89.32
2022-12-08T17:14:27.998Z,89.31
2022-12-08T17:16:57.088Z,89.08
2022-12-08T17:19:27.536Z,89.18
2022-12-08T17:21:56.625Z,89.18
2022-12-08T17:24:29.864Z,89.29
2022-12-08T17:27:04.746Z,89.34
2022-12-08T17:29:35.579Z,89.55
2022-12-08T17:32:05.103Z,89.60
2022-12-08T17:34:34.176Z,89.67
2022-12-08T17:37:03.604Z,89.75
2022-12-08T17:39:39.745Z,90.02
2022-12-08T17:42:09.793Z,90.15
2022-12-08T17:44:39.979Z,90.31
2022-12-08T17:47:09.390Z,90.46
2022-12-08T17:49:37.975Z,90.66
2022-12-08T17:52:08.016Z,90.74
2022-12-08T17:54:37.281Z,90.91
2022-12-08T17:57:07.000Z,91.00
2022-12-08T17:59:36.288Z,90.89
2022-12-08T18:02:05.753Z,91.21
2022-12-08T18:04:36.629Z,91.15
2022-12-08T18:07:08.552Z,91.28
2022-12-08T18:09:37.942Z,91.48
2022-12-08T18:12:09.298Z,91.64
2022-12-08T18:14:39.769Z,91.57
2022-12-08T18:17:10.179Z,91.71
2022-12-08T18:19:40.538Z,91.82
2022-12-08T18:22:11.382Z,91.81
2022-12-08T18:24:43.013Z,91.91
2022-12-08T18:27:12.212Z,91.99
2022-12-08T18:29:41.755Z,92.08
2022-12-08T18:32:13.767Z,92.22
2022-12-08T18:34:43.517Z,92.04
2022-12-08T18:37:12.892Z,92.09
2022-12-08T18:39:43.137Z,91.86
2022-12-08T18:42:30.736Z,92.04
2022-12-08T18:45:05.370Z,92.09
2022-12-08T18:47:37.945Z,92.10
2022-12-08T18:50:09.469Z,92.04
2022-12-08T18:52:44.856Z,92.22
2022-12-08T18:55:17.033Z,92.03
2022-12-08T18:57:48.044Z,92.09
2022-12-08T19:00:19.927Z,92.21
2022-12-08T19:02:50.801Z,92.13
2022-12-08T19:05:23.428Z,92.34
2022-12-08T19:07:54.183Z,92.23
2022-12-08T19:10:26.251Z,92.13
2022-12-08T19:13:00.249Z,92.17
2022-12-08T19:15:30.795Z,92.28
2022-12-08T19:18:01.494Z,92.26
2022-12-08T19:20:32.119Z,92.22
2022-12-08T19:23:07.249Z,92.14
2022-12-08T19:25:37.595Z,92.09
2022-12-08T19:28:08.648Z,92.19
2022-12-08T19:30:41.451Z,92.04
2022-12-08T19:33:12.344Z,92.12
2022-12-08T19:35:49.076Z,92.10
2022-12-08T19:38:31.369Z,92.07
2022-12-08T19:41:23.894Z,92.02
2022-12-08T19:44:13.445Z,92.08
2022-12-08T19:46:52.191Z,91.99
2022-12-08T19:49:24.167Z,92.18
2022-12-08T19:51:55.519Z,92.11
2022-12-08T19:54:32.984Z,92.02
2022-12-08T19:57:03.727Z,91.99
2022-12-08T19:59:41.293Z,91.81
2022-12-08T20:02:12.854Z,91.82
2022-12-08T20:04:43.479Z,91.67
2022-12-08T20:07:15.320Z,91.52
2022-12-08T20:09:45.388Z,91.58
2022-12-08T20:12:19.404Z,91.59
2022-12-08T20:14:49.786Z,91.57
2022-12-08T20:17:20.948Z,91.61
2022-12-08T20:19:51.623Z,91.66
2022-12-08T20:22:21.947Z,91.91
2022-12-08T20:24:59.414Z,91.86
2022-12-08T20:27:35.141Z,91.68
2022-12-08T20:30:05.315Z,91.71
2022-12-08T20:32:39.272Z,91.83
2022-12-08T20:35:10.408Z,91.73
2022-12-08T20:37:40.456Z,91.62
2022-12-08T20:40:11.431Z,91.74
2022-12-08T20:42:44.272Z,91.50
2022-12-08T20:45:16.259Z,91.62
2022-12-08T20:47:50.138Z,91.51
2022-12-08T20:50:20.834Z,91.34
2022-12-08T20:52:54.826Z,91.55
2022-12-08T20:55:26.713Z,91.57
2022-12-08T20:57:56.760Z,91.39
2022-12-08T21:00:28.798Z,91.33
2022-12-08T21:02:59.834Z,91.24
2022-12-08T21:05:30.191Z,91.22
2022-12-08T21:08:00.042Z,91.20
2022-12-08T21:10:29.510Z,91.26
2022-12-08T21:12:59.265Z,91.11
2022-12-08T21:15:30.294Z,91.07
2022-12-08T21:17:59.836Z,91.17
2022-12-08T21:20:28.636Z,91.13
2022-12-08T21:22:57.651Z,91.08
2022-12-08T21:25:26.673Z,91.09
2022-12-08T21:27:56.084Z,91.18
2022-12-08T21:30:25.187Z,91.06
2022-12-08T21:32:54.627Z,91.13
2022-12-08T21:35:24.279Z,90.95
2022-12-08T21:37:54.575Z,90.93
2022-12-08T21:40:24.149Z,90.97
2022-12-08T21:42:54.139Z,91.07
2022-12-08T21:45:23.888Z,91.12
2022-12-08T21:47:52.695Z,91.31
2022-12-08T21:50:22.471Z,91.34
2022-12-08T21:52:51.937Z,91.51
2022-12-08T21:55:21.928Z,91.47
2022-12-08T21:57:51.503Z,91.65
2022-12-08T22:00:21.629Z,91.90
2022-12-08T22:02:50.960Z,92.01
2022-12-08T22:05:20.604Z,91.95
2022-12-08T22:07:49.928Z,91.81
2022-12-08T22:10:21.451Z,91.92
2022-12-08T22:12:50.427Z,91.97
2022-12-08T22:15:21.457Z,92.00
2022-12-08T22:17:50.894Z,91.77
2022-12-08T22:20:20.092Z,91.76
2022-12-08T22:22:49.941Z,91.78
2022-12-08T22:25:19.188Z,91.90
2022-12-08T22:27:49.004Z,91.73
2022-12-08T22:30:18.363Z,91.67
2022-12-08T22:32:49.181Z,91.52
2022-12-08T22:35:18.692Z,91.35
2022-12-08T22:37:51.307Z,91.48
2022-12-08T22:40:21.246Z,91.56
2022-12-08T22:42:50.592Z,91.59
2022-12-08T22:45:20.077Z,91.58
2022-12-08T22:47:49.308Z,91.94
2022-12-08T22:50:19.121Z,91.71
2022-12-08T22:52:48.428Z,91.92
2022-12-08T22:55:17.960Z,91.98
2022-12-08T22:57:47.957Z,92.02
2022-12-08T23:00:19.079Z,91.93
2022-12-08T23:02:48.166Z,92.00
2022-12-08T23:05:17.911Z,92.19
2022-12-08T23:07:47.064Z,91.92
2022-12-08T23:10:16.090Z,92.12
2022-12-08T23:12:45.177Z,92.01
2022-12-08T23:15:13.920Z,91.92
2022-12-08T23:17:42.958Z,92.22
2022-12-08T23:20:12.962Z,91.98
2022-12-08T23:22:41.763Z,92.17
2022-12-08T23:25:10.430Z,92.11
2022-12-08T23:27:39.115Z,92.37
2022-12-08T23:30:09.368Z,92.17
2022-12-08T23:32:39.026Z,92.40
2022-12-08T23:35:08.603Z,92.22
2022-12-08T23:37:37.449Z,92.32
2022-12-08T23:40:07.716Z,92.28
2022-12-08T23:42:36.838Z,92.50
2022-12-08T23:45:08.550Z,92.33
2022-12-08T23:47:37.690Z,92.44
2022-12-08T23:50:07.925Z,92.41
2022-12-08T23:52:39.334Z,92.55
2022-12-08T23:55:09.440Z,92.32
2022-12-08T23:57:39.320Z,92.20
